Time;durP1;ratioP1;P1;durP2;ratioP2;P2;SDS_P1;SDS_P2;PMS_P1;PMS_P2;Temp;Humidity;BMP_temperature;BMP_pressure;BME280_temperature;BME280_humidity;BME280_pressure;Samples;Min_cycle;Max_cycle;Signal;HPM_P1;HPM_P2
2023/01/03 00:01:23;;;;;;;18.15;9.25;;;3.30;99.90;;;;;;5010896;28;20049;-81
2023/01/03 00:03:49;;;;;;;17.40;9.50;;;3.30;99.90;;;;;;5024916;28;20057;-81
2023/01/03 00:06:23;;;;;;;14.18;9.23;;;3.30;99.90;;;;;;5011404;28;20507;-81
2023/01/03 00:08:50;;;;;;;15.10;9.25;;;3.20;99.90;;;;;;5026645;28;20049;-81
2023/01/03 00:12:22;;;;;;;12.93;8.57;;;3.10;99.90;;;;;;5005435;28;20049;-81
2023/01/03 00:14:11;;;;;;;16.67;9.80;;;3.20;99.90;;;;;;5025807;28;20049;-81
2023/01/03 00:16:36;;;;;;;14.15;9.10;;;3.10;99.90;;;;;;5022640;28;20104;-81
2023/01/03 00:19:10;;;;;;;15.35;9.38;;;3.10;99.90;;;;;;5018318;28;20400;-81
2023/01/03 00:21:36;;;;;;;16.70;9.25;;;3.00;99.90;;;;;;5026773;28;20049;-81
2023/01/03 00:24:02;;;;;;;15.65;9.38;;;3.10;99.90;;;;;;5028086;28;20056;-81
2023/01/03 00:26:28;;;;;;;16.92;9.43;;;3.10;99.90;;;;;;5015472;28;20041;-81
2023/01/03 00:28:54;;;;;;;14.40;9.70;;;3.00;99.90;;;;;;5008426;28;20088;-80
2023/01/03 00:31:19;;;;;;;15.05;9.73;;;3.00;99.90;;;;;;5020061;28;20069;-81
2023/01/03 00:33:45;;;;;;;18.27;9.48;;;3.00;99.90;;;;;;5023679;28;20145;-81
2023/01/03 00:36:11;;;;;;;22.38;10.25;;;3.00;99.90;;;;;;5026705;28;20056;-81
2023/01/03 00:38:37;;;;;;;16.33;8.98;;;3.00;99.90;;;;;;5026840;28;20476;-81
2023/01/03 00:41:14;;;;;;;19.23;9.77;;;2.90;99.90;;;;;;5025886;28;20147;-81
2023/01/03 00:43:41;;;;;;;17.48;9.35;;;2.90;99.90;;;;;;5025564;28;20537;-81
2023/01/03 00:46:09;;;;;;;15.15;9.10;;;2.80;99.90;;;;;;5021395;28;20049;-81
2023/01/03 00:48:35;;;;;;;15.68;9.90;;;2.80;99.90;;;;;;5018064;28;20057;-81
2023/01/03 00:51:10;;;;;;;21.05;9.50;;;2.80;99.90;;;;;;5017108;28;20103;-81
2023/01/03 00:53:37;;;;;;;15.30;10.00;;;2.70;99.90;;;;;;5007911;28;20054;-81
2023/01/03 00:56:08;;;;;;;15.23;9.13;;;2.70;99.90;;;;;;5022148;28;20107;-81
2023/01/03 00:58:34;;;;;;;14.10;8.98;;;2.70;99.90;;;;;;5025933;28;20049;-81
2023/01/03 01:01:25;;;;;;;20.33;8.95;;;2.60;99.90;;;;;;5025922;28;20060;-81
2023/01/03 01:03:53;;;;;;;16.92;9.43;;;2.60;99.90;;;;;;5027521;28;20149;-81
2023/01/03 01:06:25;;;;;;;18.30;9.32;;;2.50;99.90;;;;;;5001371;28;20053;-81
2023/01/03 01:08:53;;;;;;;19.13;9.48;;;2.50;99.90;;;;;;5007926;28;20141;-81
2023/01/03 01:11:19;;;;;;;16.50;9.68;;;2.50;99.90;;;;;;5021074;28;20499;-81
2023/01/03 01:13:46;;;;;;;13.50;9.95;;;2.50;99.90;;;;;;5021450;28;20055;-81
2023/01/03 01:16:18;;;;;;;14.55;10.48;;;2.50;99.90;;;;;;5026392;28;20051;-81
2023/01/03 01:18:45;;;;;;;15.93;9.73;;;2.40;99.90;;;;;;5027329;28;20809;-81
2023/01/03 01:21:14;;;;;;;20.38;11.55;;;2.50;99.90;;;;;;5019161;28;20050;-81
2023/01/03 01:23:40;;;;;;;21.02;11.82;;;2.50;99.90;;;;;;5027089;28;20435;-81
2023/01/03 01:26:09;;;;;;;22.10;11.55;;;2.60;99.90;;;;;;5026211;28;20486;-81
2023/01/03 01:28:34;;;;;;;19.15;11.10;;;2.40;99.90;;;;;;5019191;28;20048;-81
2023/01/03 01:31:02;;;;;;;22.88;12.10;;;2.50;99.90;;;;;;5013666;28;20049;-81
2023/01/03 01:33:29;;;;;;;20.65;12.23;;;2.50;99.90;;;;;;5027559;28;20404;-81
2023/01/03 01:35:55;;;;;;;21.95;11.23;;;2.50;99.90;;;;;;5019810;28;20401;-81
2023/01/03 01:38:21;;;;;;;26.40;12.48;;;2.60;99.90;;;;;;5018060;28;20385;-81
2023/01/03 01:40:46;;;;;;;25.60;13.35;;;2.50;99.90;;;;;;5026397;28;20069;-81
2023/01/03 01:46:27;;;;;;;19.10;11.98;;;2.50;99.90;;;;;;5017345;28;20796;-81
2023/01/03 01:49:01;;;;;;;22.10;12.73;;;2.50;99.90;;;;;;5011859;28;20419;-81
2023/01/03 01:51:31;;;;;;;21.13;12.55;;;2.50;99.90;;;;;;4998963;28;20377;-81
2023/01/03 01:53:59;;;;;;;23.63;12.13;;;3.00;99.90;;;;;;5013081;28;20436;-81
2023/01/03 01:56:29;;;;;;;20.02;11.63;;;2.40;99.90;;;;;;5016272;28;20114;-81
2023/01/03 01:58:55;;;;;;;17.90;11.35;;;2.40;99.90;;;;;;5035769;28;20400;-81
2023/01/03 02:01:22;;;;;;;21.15;11.95;;;2.30;99.90;;;;;;5010527;28;20338;-81
2023/01/03 02:04:00;;;;;;;18.38;11.80;;;2.30;99.90;;;;;;5009174;28;20049;-81
2023/01/03 02:06:29;;;;;;;20.55;12.07;;;2.30;99.90;;;;;;5012741;28;20049;-81
2023/01/03 02:08:54;;;;;;;18.73;12.05;;;2.30;99.90;;;;;;5026744;28;20045;-81
2023/01/03 02:11:26;;;;;;;21.33;12.18;;;2.20;99.90;;;;;;5020480;28;20050;-81
2023/01/03 02:14:29;;;;;;;22.00;12.00;;;2.20;99.90;;;;;;5002261;28;20081;-81
2023/01/03 02:17:13;;;;;;;18.95;11.32;;;2.20;99.90;;;;;;5036346;28;20137;-81
2023/01/03 02:20:12;;;;;;;22.33;11.57;;;2.20;99.90;;;;;;5018658;28;20060;-81
2023/01/03 02:23:01;;;;;;;26.88;10.90;;;2.20;99.90;;;;;;5031354;28;20496;-81
2023/01/03 02:25:58;;;;;;;23.83;12.10;;;2.20;99.90;;;;;;5015139;28;20053;-81
2023/01/03 02:28:46;;;;;;;25.17;12.02;;;2.20;99.90;;;;;;5018525;28;20042;-81
2023/01/03 02:31:12;;;;;;;25.02;12.90;;;2.20;99.90;;;;;;5011103;28;20125;-81
2023/01/03 02:33:54;;;;;;;25.40;12.80;;;2.10;99.90;;;;;;5020958;28;20125;-81
2023/01/03 02:36:34;;;;;;;26.48;13.15;;;2.10;99.90;;;;;;5012865;28;20050;-81
2023/01/03 02:39:07;;;;;;;23.58;12.68;;;2.10;99.90;;;;;;5013566;28;20147;-81
2023/01/03 02:42:56;;;;;;;22.35;12.73;;;2.10;99.90;;;;;;5034786;28;20365;-81
2023/01/03 02:44:54;;;;;;;25.02;13.43;;;2.10;99.90;;;;;;5011883;28;20057;-81
2023/01/03 02:47:23;;;;;;;22.80;12.32;;;2.10;99.90;;;;;;5013652;28;20054;-81
2023/01/03 02:49:51;;;;;;;18.85;11.82;;;2.20;99.90;;;;;;5041060;28;20050;-81
2023/01/03 02:52:25;;;;;;;21.02;12.25;;;2.10;99.90;;;;;;5009641;28;20062;-81
2023/01/03 02:55:01;;;;;;;25.55;13.05;;;2.10;99.90;;;;;;5010535;28;20768;-80
2023/01/03 02:57:39;;;;;;;24.45;12.50;;;2.10;99.90;;;;;;5029244;28;20056;-80
2023/01/03 03:00:10;;;;;;;21.42;12.95;;;2.10;99.90;;;;;;5026884;28;20081;-80
2023/01/03 03:02:44;;;;;;;23.95;13.63;;;2.10;99.90;;;;;;5027923;28;20045;-80
2023/01/03 03:05:17;;;;;;;23.85;13.88;;;2.10;99.90;;;;;;5011515;28;20103;-80
2023/01/03 03:07:43;;;;;;;29.52;13.55;;;2.90;99.90;;;;;;5026126;28;20079;-80
2023/01/03 03:13:13;;;;;;;24.02;12.77;;;2.00;99.90;;;;;;5017903;28;20404;-79
2023/01/03 03:15:53;;;;;;;26.00;12.98;;;2.00;99.90;;;;;;5025759;28;20164;-79
2023/01/03 03:18:42;;;;;;;27.45;13.18;;;2.00;99.90;;;;;;5023087;28;20128;-80
2023/01/03 03:26:48;;;;;;;29.90;14.40;;;1.90;99.90;;;;;;5026272;28;20065;-80
2023/01/03 03:29:17;;;;;;;33.60;14.57;;;2.30;99.90;;;;;;5029773;28;20902;-79
2023/01/03 03:31:48;;;;;;;32.65;14.43;;;1.80;99.90;;;;;;5028431;28;20060;-80
2023/01/03 03:34:28;;;;;;;30.13;14.63;;;1.60;99.90;;;;;;5015290;28;20144;-80
2023/01/03 03:37:11;;;;;;;30.08;14.82;;;1.80;99.90;;;;;;5028074;28;20045;-79
2023/01/03 03:45:26;;;;;;;32.42;14.43;;;1.80;99.90;;;;;;5023544;28;20045;-79
2023/01/03 03:47:51;;;;;;;31.58;14.95;;;1.80;99.90;;;;;;4998041;28;20049;-80
2023/01/03 03:50:33;;;;;;;34.80;16.05;;;1.80;99.90;;;;;;5012388;28;20124;-80
2023/01/03 03:53:03;;;;;;;35.50;15.30;;;1.80;99.90;;;;;;5027565;28;20049;-80
2023/01/03 03:55:53;;;;;;;28.88;14.52;;;1.80;99.90;;;;;;5029618;28;20450;-79
2023/01/03 03:58:25;;;;;;;36.15;15.98;;;1.80;99.90;;;;;;5026686;28;20053;-80
2023/01/03 04:00:53;;;;;;;27.35;15.02;;;2.10;99.90;;;;;;5028705;28;20178;-80
2023/01/03 04:03:20;;;;;;;30.45;14.50;;;1.90;99.90;;;;;;5011349;28;20049;-79
2023/01/03 04:05:53;;;;;;;29.95;14.98;;;1.90;99.90;;;;;;5027696;28;20104;-79
2023/01/03 04:08:19;;;;;;;33.08;15.27;;;1.90;99.90;;;;;;5026151;28;20510;-79
2023/01/03 04:10:45;;;;;;;29.80;15.52;;;1.90;99.90;;;;;;5027594;28;20033;-79
2023/01/03 04:13:10;;;;;;;31.38;15.27;;;1.90;99.90;;;;;;5010983;28;20415;-79
2023/01/03 04:15:36;;;;;;;35.13;14.85;;;1.80;99.90;;;;;;5027863;28;20041;-79
2023/01/03 04:18:02;;;;;;;33.03;15.90;;;1.80;99.90;;;;;;5008369;28;20500;-79
2023/01/03 04:20:30;;;;;;;30.35;14.63;;;1.80;99.90;;;;;;5011762;28;20536;-79
2023/01/03 04:22:56;;;;;;;34.45;15.60;;;1.80;99.90;;;;;;5011643;28;20080;-79
2023/01/03 04:25:21;;;;;;;30.67;14.48;;;1.80;99.90;;;;;;5023503;28;20038;-79
2023/01/03 04:27:47;;;;;;;29.38;13.93;;;1.70;99.90;;;;;;5014621;28;20071;-79
2023/01/03 04:30:13;;;;;;;24.45;14.10;;;1.70;99.90;;;;;;5009845;28;20049;-79
2023/01/03 04:32:39;;;;;;;30.15;15.77;;;1.70;99.90;;;;;;4998206;28;20053;-79
2023/01/03 04:35:05;;;;;;;32.63;15.38;;;1.70;99.90;;;;;;5028912;28;20081;-79
2023/01/03 04:37:31;;;;;;;27.65;14.40;;;1.70;99.90;;;;;;5026967;28;20044;-79
2023/01/03 04:39:56;;;;;;;32.13;15.10;;;1.70;99.90;;;;;;5028086;28;20408;-79
2023/01/03 04:45:06;;;;;;;32.45;15.35;;;2.00;99.90;;;;;;5026908;28;20053;-79
2023/01/03 04:47:32;;;;;;;29.83;15.82;;;1.70;99.90;;;;;;5027301;28;20042;-79
2023/01/03 04:49:58;;;;;;;41.97;15.90;;;1.70;99.90;;;;;;5027513;28;20045;-79
2023/01/03 04:52:23;;;;;;;39.08;17.17;;;1.70;99.90;;;;;;5029280;28;20384;-79
2023/01/03 04:54:49;;;;;;;32.45;16.05;;;1.80;99.90;;;;;;5026712;28;20053;-79
2023/01/03 04:57:15;;;;;;;34.78;17.67;;;1.80;99.90;;;;;;5026789;28;20041;-79
2023/01/03 04:59:40;;;;;;;36.47;16.73;;;1.90;99.90;;;;;;5016078;28;20081;-79
2023/01/03 05:02:07;;;;;;;38.38;17.50;;;1.90;99.90;;;;;;5010186;28;20136;-79
2023/01/03 05:04:33;;;;;;;41.63;17.92;;;2.00;99.90;;;;;;5029374;28;20509;-79
2023/01/03 05:06:58;;;;;;;35.33;16.42;;;2.00;99.90;;;;;;5009067;28;20088;-79
2023/01/03 05:09:26;;;;;;;39.10;17.55;;;2.10;99.90;;;;;;5008169;28;20073;-80
2023/01/03 05:11:54;;;;;;;38.72;18.58;;;2.10;99.90;;;;;;5023114;28;20049;-79
2023/01/03 05:14:21;;;;;;;38.63;18.15;;;2.10;99.90;;;;;;5009952;28;20064;-79
2023/01/03 05:16:47;;;;;;;42.15;18.25;;;2.20;99.90;;;;;;5021321;28;20140;-80
2023/01/03 05:19:12;;;;;;;38.65;18.42;;;2.20;99.90;;;;;;5006792;28;20034;-80
2023/01/03 05:25:48;;;;;;;34.30;17.73;;;2.20;99.90;;;;;;5025683;28;20057;-80
2023/01/03 05:27:20;;;;;;;39.78;19.35;;;1.90;99.90;;;;;;5012105;28;20049;-79
2023/01/03 05:29:49;;;;;;;40.53;18.73;;;2.00;99.90;;;;;;5017995;28;20050;-80
2023/01/03 05:32:15;;;;;;;38.63;18.83;;;2.10;99.90;;;;;;5013135;28;20049;-79
2023/01/03 05:34:41;;;;;;;35.70;18.95;;;2.00;99.90;;;;;;5025797;28;20491;-79
2023/01/03 05:37:06;;;;;;;36.00;19.08;;;1.90;99.90;;;;;;5028337;28;20041;-79
2023/01/03 05:39:32;;;;;;;34.10;19.08;;;1.90;99.90;;;;;;5024660;28;20425;-79
2023/01/03 05:42:00;;;;;;;41.67;19.42;;;1.90;99.90;;;;;;5021007;28;20100;-79
2023/01/03 05:44:31;;;;;;;37.28;17.40;;;1.70;99.90;;;;;;5025069;28;20055;-79
2023/01/03 05:46:58;;;;;;;36.85;19.50;;;1.80;99.90;;;;;;5021042;28;20147;-80
2023/01/03 05:49:24;;;;;;;38.60;19.63;;;1.80;99.90;;;;;;5023571;28;20056;-79
2023/01/03 05:51:49;;;;;;;33.72;18.73;;;1.70;99.90;;;;;;5024818;28;20053;-79
2023/01/03 05:54:17;;;;;;;36.95;20.63;;;1.70;99.90;;;;;;5027721;28;20449;-79
2023/01/03 05:56:42;;;;;;;35.78;18.95;;;1.60;99.90;;;;;;5022622;28;20045;-79
2023/01/03 05:59:08;;;;;;;37.85;20.08;;;1.60;99.90;;;;;;5023608;28;20083;-79
2023/01/03 06:01:34;;;;;;;35.42;20.02;;;1.60;99.90;;;;;;5026408;28;20045;-79
2023/01/03 06:04:00;;;;;;;34.08;19.00;;;1.60;99.90;;;;;;5009907;28;20119;-79
2023/01/03 06:06:25;;;;;;;30.88;17.67;;;1.50;99.90;;;;;;5023798;28;20041;-79
2023/01/03 06:08:52;;;;;;;36.30;21.00;;;1.50;99.90;;;;;;5008614;28;20038;-79
2023/01/03 06:11:18;;;;;;;30.80;18.27;;;1.40;99.90;;;;;;5017329;28;20116;-79
2023/01/03 06:13:47;;;;;;;34.15;18.88;;;1.40;99.90;;;;;;5022465;28;20136;-79
2023/01/03 06:19:03;;;;;;;38.10;17.75;;;1.30;99.90;;;;;;5027448;28;20050;-79
2023/01/03 06:21:28;;;;;;;33.88;19.80;;;1.60;99.90;;;;;;5025758;28;20086;-79
2023/01/03 06:23:54;;;;;;;32.40;19.45;;;1.20;99.90;;;;;;5026588;28;20061;-79
2023/01/03 06:26:22;;;;;;;35.45;20.90;;;1.20;99.90;;;;;;5015377;28;20049;-79
2023/01/03 06:28:48;;;;;;;39.28;20.80;;;1.20;99.90;;;;;;5027891;28;20045;-79
2023/01/03 06:31:14;;;;;;;36.47;20.67;;;1.20;99.90;;;;;;5023245;28;20107;-79
2023/01/03 06:33:40;;;;;;;39.10;20.30;;;1.10;99.90;;;;;;5014864;28;20357;-80
2023/01/03 06:36:08;;;;;;;37.38;19.65;;;1.10;99.90;;;;;;5011863;28;20060;-79
2023/01/03 06:38:35;;;;;;;227.38;35.67;;;1.10;99.90;;;;;;5028086;28;20059;-79
2023/01/03 06:41:01;;;;;;;36.22;19.95;;;1.10;99.90;;;;;;5013520;28;20092;-79
2023/01/03 06:43:27;;;;;;;36.38;20.30;;;1.60;99.90;;;;;;5034348;28;20391;-79
2023/01/03 06:54:31;;;;;;;62.45;34.30;;;2.00;99.90;;;;;;5026064;28;20061;-79
2023/01/03 06:56:57;;;;;;;62.38;34.55;;;1.00;99.90;;;;;;5006301;28;20061;-79
2023/01/03 06:59:23;;;;;;;60.90;32.40;;;1.10;99.90;;;;;;5018064;28;20538;-79
2023/01/03 07:01:54;;;;;;;96.13;49.15;;;1.90;99.90;;;;;;5021287;28;20049;-79
2023/01/03 07:04:22;;;;;;;79.18;41.53;;;1.10;99.90;;;;;;5027571;28;20071;-80
2023/01/03 07:06:47;;;;;;;58.53;30.85;;;1.10;99.90;;;;;;5031102;28;20135;-80
2023/01/03 07:09:13;;;;;;;54.97;30.73;;;1.40;99.90;;;;;;5030164;28;20506;-80
2023/01/03 07:11:39;;;;;;;52.00;28.88;;;1.10;99.90;;;;;;5030543;28;20054;-80
2023/01/03 07:14:07;;;;;;;42.78;24.40;;;1.00;99.90;;;;;;5029605;28;20415;-80
2023/01/03 07:16:34;;;;;;;46.97;23.13;;;1.00;99.90;;;;;;5028821;28;20063;-80
2023/01/03 07:19:00;;;;;;;43.10;22.02;;;1.00;99.90;;;;;;5028615;28;20049;-80
2023/01/03 07:21:28;;;;;;;47.47;23.45;;;0.70;99.90;;;;;;5009701;28;20045;-80
2023/01/03 07:23:55;;;;;;;178.25;33.80;;;1.10;99.90;;;;;;5027067;28;20061;-80
2023/01/03 07:26:25;;;;;;;243.18;38.25;;;1.30;99.90;;;;;;5029360;28;20042;-80
2023/01/03 07:28:54;;;;;;;258.27;35.92;;;1.30;99.90;;;;;;5028059;28;20042;-80
2023/01/03 07:31:20;;;;;;;270.70;38.67;;;1.50;99.90;;;;;;5027728;28;20050;-80
2023/01/03 07:33:45;;;;;;;304.05;40.10;;;1.40;99.90;;;;;;5026112;28;20471;-80
2023/01/03 07:36:13;;;;;;;228.90;34.00;;;1.40;99.90;;;;;;5029287;28;20037;-80
2023/01/03 07:38:41;;;;;;;164.93;30.80;;;1.40;99.90;;;;;;5029688;28;20045;-80
2023/01/03 07:41:07;;;;;;;145.70;25.45;;;1.30;99.90;;;;;;5015545;28;20416;-80
2023/01/03 07:43:37;;;;;;;178.05;30.00;;;1.30;99.90;;;;;;5026318;28;20060;-80
2023/01/03 07:46:26;;;;;;;176.90;28.55;;;1.40;99.90;;;;;;5029059;28;20049;-79
2023/01/03 07:48:56;;;;;;;273.55;36.20;;;1.40;99.90;;;;;;5025725;28;20154;-80
2023/01/03 07:51:21;;;;;;;282.30;34.10;;;1.40;99.90;;;;;;5015823;28;20045;-80
2023/01/03 07:53:51;;;;;;;206.23;30.73;;;1.40;99.90;;;;;;5022714;28;20641;-80
2023/01/03 07:56:19;;;;;;;268.52;34.30;;;2.60;99.90;;;;;;5010301;28;20042;-80
2023/01/03 07:58:45;;;;;;;152.65;25.17;;;1.50;99.90;;;;;;5025860;28;20041;-80
2023/01/03 08:01:20;;;;;;;232.90;30.73;;;1.50;99.90;;;;;;5028314;28;20049;-80
2023/01/03 08:03:46;;;;;;;266.98;34.78;;;1.50;99.90;;;;;;5010897;28;20132;-80
2023/01/03 08:06:14;;;;;;;205.40;31.42;;;1.50;99.90;;;;;;5017475;28;20228;-81
2023/01/03 08:08:40;;;;;;;288.38;36.55;;;1.60;99.90;;;;;;5018238;28;20045;-82
2023/01/03 08:13:52;;;;;;;275.98;35.83;;;1.70;99.90;;;;;;5028614;28;20061;-81
2023/01/03 08:16:18;;;;;;;212.48;32.25;;;1.80;99.90;;;;;;5028991;28;20377;-81
2023/01/03 08:18:44;;;;;;;181.50;29.30;;;2.10;99.90;;;;;;5013299;28;20084;-83
2023/01/03 08:21:13;;;;;;;211.32;31.15;;;1.90;99.90;;;;;;5027080;28;20065;-82
2023/01/03 08:23:39;;;;;;;293.05;37.38;;;2.00;99.90;;;;;;5027494;28;20106;-82
2023/01/03 08:26:11;;;;;;;370.13;42.50;;;2.00;99.90;;;;;;5027476;28;20061;-81
2023/01/03 08:28:37;;;;;;;156.90;26.48;;;2.20;99.90;;;;;;5029809;28;20405;-83
2023/01/03 08:31:25;;;;;;;172.02;25.80;;;2.20;99.90;;;;;;5027820;28;20045;-82
2023/01/03 08:34:03;;;;;;;229.80;30.88;;;2.30;99.90;;;;;;5014823;28;20054;-81
2023/01/03 08:36:34;;;;;;;379.45;42.65;;;2.40;99.90;;;;;;4992533;28;20050;-82
2023/01/03 08:39:06;;;;;;;352.85;44.00;;;2.50;99.90;;;;;;5017199;28;20049;-82
2023/01/03 08:41:36;;;;;;;407.15;42.92;;;2.50;99.90;;;;;;5028149;28;20077;-82
2023/01/03 08:44:05;;;;;;;590.45;62.55;;;2.60;99.90;;;;;;5029222;28;20045;-82
2023/01/03 08:46:32;;;;;;;303.65;39.20;;;2.60;99.90;;;;;;5029338;28;20052;-82
2023/01/03 08:48:58;;;;;;;423.58;48.50;;;2.70;99.90;;;;;;5027434;28;20064;-82
2023/01/03 08:51:25;;;;;;;366.02;46.15;;;2.80;99.90;;;;;;5028784;28;20042;-81
2023/01/03 08:53:51;;;;;;;358.98;46.55;;;2.90;99.90;;;;;;5010276;28;20515;-82
2023/01/03 08:56:20;;;;;;;325.23;42.15;;;3.40;99.90;;;;;;5029014;28;20053;-82
2023/01/03 08:58:46;;;;;;;325.73;45.17;;;3.00;99.90;;;;;;5028024;28;20513;-82
2023/01/03 09:01:11;;;;;;;322.00;44.78;;;3.10;99.90;;;;;;5029408;28;20057;-82
2023/01/03 09:03:37;;;;;;;331.55;45.63;;;3.20;99.90;;;;;;5029058;28;20045;-82
2023/01/03 09:06:03;;;;;;;249.15;39.03;;;3.30;99.90;;;;;;5028683;28;20132;-83
2023/01/03 09:08:30;;;;;;;162.35;36.95;;;3.40;99.90;;;;;;5025648;28;20099;-82
2023/01/03 09:10:57;;;;;;;191.82;38.45;;;3.40;99.90;;;;;;5025809;28;20172;-83
2023/01/03 09:13:22;;;;;;;203.25;41.22;;;3.50;99.90;;;;;;5028546;28;20392;-82
2023/01/03 09:15:48;;;;;;;104.10;30.55;;;3.60;99.90;;;;;;5028248;28;20041;-82
2023/01/03 09:18:13;;;;;;;140.25;33.88;;;3.60;99.90;;;;;;5028487;28;20037;-82
2023/01/03 09:20:40;;;;;;;116.45;33.20;;;3.70;99.90;;;;;;5028300;28;20045;-82
2023/01/03 09:23:06;;;;;;;126.78;35.03;;;3.80;99.90;;;;;;5026173;28;20061;-82
2023/01/03 09:25:32;;;;;;;124.40;36.45;;;3.90;99.90;;;;;;5025074;28;20067;-84
2023/01/03 09:27:57;;;;;;;122.13;33.95;;;4.00;99.90;;;;;;5025296;28;20076;-83
2023/01/03 09:30:23;;;;;;;118.20;35.28;;;4.10;99.90;;;;;;5028049;28;20061;-83
2023/01/03 09:32:50;;;;;;;138.52;36.90;;;4.20;99.90;;;;;;5027665;28;20037;-83
2023/01/03 09:35:16;;;;;;;125.15;36.83;;;4.20;99.90;;;;;;5028081;28;20596;-83
2023/01/03 09:37:41;;;;;;;121.82;37.05;;;4.30;99.90;;;;;;5027519;28;20037;-83
2023/01/03 09:40:08;;;;;;;137.13;38.00;;;4.40;99.90;;;;;;5026312;28;20096;-83
2023/01/03 09:45:32;;;;;;;96.07;34.95;;;4.40;99.90;;;;;;5008985;28;20058;-83
2023/01/03 09:48:00;;;;;;;97.80;34.75;;;4.40;99.90;;;;;;5007993;28;20061;-83
2023/01/03 09:50:28;;;;;;;105.28;34.28;;;4.40;99.90;;;;;;5007373;28;20069;-83
2023/01/03 10:04:50;;;;;;;;;;;4.50;99.90;;;;;;5026770;28;20061;-83
2023/01/03 10:07:21;;;;;;;99.53;34.35;;;4.50;99.90;;;;;;5027360;28;20433;-83
2023/01/03 10:09:59;;;;;;;98.87;36.90;;;4.60;99.90;;;;;;5026393;28;20100;-83
2023/01/03 10:12:51;;;;;;;112.85;37.92;;;4.60;99.90;;;;;;5022706;28;20081;-83
2023/01/03 10:15:49;;;;;;;120.50;39.53;;;4.70;99.90;;;;;;5007946;28;20161;-84
2023/01/03 10:18:41;;;;;;;124.93;39.63;;;4.70;99.90;;;;;;5006154;28;20049;-83
2023/01/03 10:21:33;;;;;;;106.55;37.80;;;4.80;99.90;;;;;;5006018;28;20050;-84
2023/01/03 10:24:02;;;;;;;112.15;38.17;;;4.80;99.90;;;;;;5004291;28;20369;-83
2023/01/03 10:26:31;;;;;;;116.50;38.25;;;4.90;99.90;;;;;;5004309;28;20049;-83
2023/01/03 10:28:57;;;;;;;116.65;37.63;;;4.90;99.90;;;;;;5002803;28;20057;-83
2023/01/03 10:32:04;;;;;;;103.82;37.33;;;5.00;99.90;;;;;;5022534;28;20045;-83
2023/01/03 10:34:29;;;;;;;99.22;36.13;;;5.10;99.90;;;;;;5025416;28;20725;-84
2023/01/03 10:36:55;;;;;;;106.10;34.67;;;5.10;99.90;;;;;;5012269;28;20050;-83
2023/01/03 10:39:31;;;;;;;105.90;36.40;;;5.20;99.90;;;;;;5030850;28;20049;-83
2023/01/03 10:41:59;;;;;;;96.03;35.67;;;5.20;99.90;;;;;;5013121;28;20052;-82
2023/01/03 10:44:31;;;;;;;91.50;35.28;;;5.30;99.90;;;;;;5029101;28;20499;-82
2023/01/03 10:47:09;;;;;;;107.63;36.75;;;5.30;99.90;;;;;;5030932;28;20120;-82
2023/01/03 10:49:35;;;;;;;101.10;36.10;;;5.40;99.90;;;;;;5029655;28;20057;-83
2023/01/03 10:52:23;;;;;;;105.32;36.92;;;5.40;99.90;;;;;;5031270;28;20499;-83
2023/01/03 10:54:57;;;;;;;104.00;36.38;;;5.50;99.90;;;;;;5028966;28;20053;-82
2023/01/03 10:57:45;;;;;;;94.25;36.45;;;5.50;99.90;;;;;;5027536;28;20380;-83
2023/01/03 11:00:20;;;;;;;76.57;31.05;;;5.60;99.90;;;;;;5029600;28;20118;-83
2023/01/03 11:02:46;;;;;;;70.93;29.75;;;5.60;99.90;;;;;;5030244;28;20038;-83
2023/01/03 11:05:24;;;;;;;72.07;30.10;;;5.60;99.90;;;;;;5029470;28;20049;-83
2023/01/03 11:07:55;;;;;;;76.53;30.95;;;5.60;99.90;;;;;;5031274;28;20099;-83
2023/01/03 11:10:35;;;;;;;68.88;29.67;;;5.70;99.90;;;;;;5013665;28;20507;-83
2023/01/03 11:13:37;;;;;;;68.80;29.20;;;5.80;99.90;;;;;;5029407;28;20561;-84
2023/01/03 11:16:12;;;;;;;69.60;29.08;;;5.80;99.90;;;;;;5025024;28;20072;-83
2023/01/03 11:18:37;;;;;;;70.05;28.98;;;5.80;99.90;;;;;;5012883;28;20046;-82
2023/01/03 11:21:22;;;;;;;58.53;27.80;;;6.50;99.90;;;;;;5030729;28;20072;-83
2023/01/03 11:24:01;;;;;;;57.35;26.25;;;5.80;99.90;;;;;;5029013;28;20394;-83
2023/01/03 11:27:05;;;;;;;64.80;27.67;;;5.90;99.90;;;;;;5028586;28;20434;-83
2023/01/03 11:29:42;;;;;;;57.72;26.40;;;5.90;99.90;;;;;;5031229;28;20053;-83
2023/01/03 11:32:32;;;;;;;51.70;26.00;;;5.90;99.90;;;;;;5018087;28;20408;-83
2023/01/03 11:35:32;;;;;;;53.15;25.50;;;5.90;99.90;;;;;;5025645;28;20476;-82
2023/01/03 11:38:23;;;;;;;51.35;26.15;;;5.90;99.90;;;;;;5012480;28;20133;-83
2023/01/03 11:41:17;;;;;;;48.78;25.23;;;5.90;99.90;;;;;;5032708;28;20392;-84
2023/01/03 11:44:02;;;;;;;49.03;24.77;;;5.90;99.90;;;;;;5030697;28;20068;-82
2023/01/03 11:46:46;;;;;;;50.47;23.27;;;6.00;99.90;;;;;;5029119;28;20653;-83
2023/01/03 11:49:27;;;;;;;44.13;24.63;;;6.00;99.90;;;;;;5027202;28;20065;-82
2023/01/03 11:52:11;;;;;;;43.30;23.50;;;5.40;99.90;;;;;;5009454;28;20045;-82
2023/01/03 11:54:56;;;;;;;43.67;22.52;;;6.20;99.90;;;;;;5010093;28;20054;-82
2023/01/03 11:57:50;;;;;;;43.15;22.25;;;6.00;99.90;;;;;;5010139;28;20160;-82
2023/01/03 12:00:40;;;;;;;42.15;23.00;;;6.00;99.90;;;;;;5008900;28;20092;-84
2023/01/03 12:03:14;;;;;;;40.85;22.90;;;6.00;99.90;;;;;;5009020;28;20061;-83
2023/01/03 12:05:45;;;;;;;42.25;22.23;;;6.00;99.90;;;;;;5009136;28;20061;-84
2023/01/03 12:08:11;;;;;;;39.50;21.07;;;6.00;99.90;;;;;;5010732;28;20045;-81
2023/01/03 12:11:06;;;;;;;38.67;20.20;;;6.10;99.90;;;;;;4992957;28;20357;-81
2023/01/03 12:13:58;;;;;;;39.80;20.58;;;6.10;99.90;;;;;;5007935;28;20066;-82
2023/01/03 12:16:31;;;;;;;36.28;19.33;;;6.20;99.90;;;;;;5008433;28;20042;-83
2023/01/03 12:19:25;;;;;;;38.28;20.20;;;6.20;99.90;;;;;;5008752;28;20042;-82
2023/01/03 12:21:57;;;;;;;36.47;18.58;;;6.30;99.90;;;;;;5007709;28;20050;-83
2023/01/03 12:24:43;;;;;;;34.42;19.08;;;6.30;99.90;;;;;;5008368;28;20061;-82
2023/01/03 12:27:34;;;;;;;32.95;17.85;;;6.30;99.90;;;;;;5014200;28;20095;-82
2023/01/03 12:30:25;;;;;;;35.53;18.88;;;6.30;99.90;;;;;;5027335;28;20769;-82
2023/01/03 12:32:56;;;;;;;39.55;19.15;;;6.30;99.90;;;;;;5027518;28;20072;-82
2023/01/03 12:36:08;;;;;;;36.65;17.83;;;6.30;99.90;;;;;;5027474;28;20049;-82
2023/01/03 12:38:39;;;;;;;38.63;17.95;;;6.40;99.90;;;;;;4961677;28;20066;-82
2023/01/03 12:41:22;;;;;;;40.70;21.73;;;6.40;99.90;;;;;;5007689;28;20514;-82
2023/01/03 12:43:53;;;;;;;37.72;18.38;;;6.40;99.90;;;;;;5007279;28;20050;-82
2023/01/03 12:46:32;;;;;;;45.15;20.65;;;6.40;99.90;;;;;;5020903;28;20402;-82
2023/01/03 12:49:17;;;;;;;45.92;21.25;;;6.40;99.90;;;;;;5027512;28;20080;-82
2023/01/03 12:51:43;;;;;;;40.28;19.85;;;6.50;99.90;;;;;;5027544;28;20041;-82
2023/01/03 12:54:18;;;;;;;40.88;19.67;;;6.50;99.90;;;;;;5028043;28;20114;-82
2023/01/03 12:56:46;;;;;;;35.00;19.10;;;6.50;99.90;;;;;;5028711;28;20458;-82
2023/01/03 12:59:58;;;;;;;35.10;19.25;;;6.40;99.90;;;;;;5026959;28;20085;-82
2023/01/03 13:02:48;;;;;;;40.42;18.25;;;6.50;99.90;;;;;;5018657;28;20100;-82
2023/01/03 13:05:13;;;;;;;40.22;18.25;;;6.40;99.90;;;;;;5008101;28;20046;-83
2023/01/03 13:07:43;;;;;;;35.35;17.92;;;6.40;99.90;;;;;;5023929;28;20057;-83
2023/01/03 13:10:15;;;;;;;43.83;19.70;;;6.50;99.90;;;;;;5007660;28;20176;-82
2023/01/03 13:12:47;;;;;;;38.70;19.25;;;6.50;99.90;;;;;;5007647;28;20400;-82
2023/01/03 13:15:21;;;;;;;35.53;17.80;;;6.50;99.90;;;;;;5007718;28;20068;-83
2023/01/03 13:17:48;;;;;;;34.17;17.70;;;6.50;99.90;;;;;;5006120;28;20308;-83
2023/01/03 13:20:29;;;;;;;39.47;18.23;;;6.50;99.90;;;;;;5040502;28;20514;-83
2023/01/03 13:23:19;;;;;;;37.00;18.23;;;6.50;99.90;;;;;;5009397;28;20045;-83
2023/01/03 13:26:06;;;;;;;35.00;17.65;;;6.50;99.90;;;;;;5027770;28;20080;-83
2023/01/03 13:28:38;;;;;;;33.45;17.13;;;6.50;99.90;;;;;;5027026;28;20404;-83
2023/01/03 13:31:13;;;;;;;36.80;18.17;;;6.60;99.90;;;;;;5026717;28;20054;-83
2023/01/03 13:33:52;;;;;;;35.33;17.60;;;6.60;99.90;;;;;;5024806;28;20397;-84
2023/01/03 13:36:18;;;;;;;35.05;17.30;;;6.70;99.90;;;;;;5025924;28;20042;-84
2023/01/03 13:38:45;;;;;;;36.15;18.67;;;6.70;99.90;;;;;;5027086;28;20049;-83
2023/01/03 13:41:35;;;;;;;29.10;17.98;;;6.70;99.90;;;;;;5026551;28;20049;-83
2023/01/03 13:44:22;;;;;;;35.75;17.20;;;6.70;99.90;;;;;;5027028;28;20756;-83
2023/01/03 13:46:50;;;;;;;33.55;16.17;;;6.80;99.90;;;;;;5010374;28;20420;-83
2023/01/03 13:49:26;;;;;;;31.38;15.82;;;6.80;99.90;;;;;;5028051;28;20049;-84
2023/01/03 13:51:56;;;;;;;29.55;17.05;;;6.80;99.90;;;;;;5009738;28;20508;-83
2023/01/03 13:54:24;;;;;;;38.47;17.40;;;6.90;99.90;;;;;;5008672;28;20480;-83